Time;durP1;ratioP1;P1;durP2;ratioP2;P2;SDS_P1;SDS_P2;PMS_P1;PMS_P2;Temp;Humidity;BMP_temperature;BMP_pressure;BME280_temperature;BME280_humidity;BME280_pressure;Samples;Min_cycle;Max_cycle;Signal;HPM_P1;HPM_P2
2023/08/02 00:00:19;;;;;;;7.32;2.75;;;;;;;-148.88;100.00;-17125.47;5024169;28;20453;-82
2023/08/02 00:02:45;;;;;;;6.78;2.70;;;;;;;-148.88;100.00;-17125.47;5023123;28;20026;-82
2023/08/02 00:05:10;;;;;;;7.07;3.10;;;;;;;-148.88;100.00;-17125.47;5022064;28;20033;-81
2023/08/02 00:07:35;;;;;;;8.32;2.85;;;;;;;-148.88;100.00;-17125.47;5024318;28;20032;-82
2023/08/02 00:10:03;;;;;;;8.23;2.80;;;;;;;-148.88;100.00;-17125.47;5021348;28;20045;-82
2023/08/02 00:12:29;;;;;;;7.57;2.85;;;;;;;-148.88;100.00;-17125.47;5019296;28;20074;-83
2023/08/02 00:14:55;;;;;;;7.32;2.85;;;;;;;-148.88;100.00;-17125.47;5019706;28;20026;-81
2023/08/02 00:17:20;;;;;;;7.72;3.03;;;;;;;-148.88;100.00;-17125.47;5019760;28;20037;-81
2023/08/02 00:19:45;;;;;;;10.30;2.88;;;;;;;-148.88;100.00;-17125.47;5019540;28;20065;-82
2023/08/02 00:22:11;;;;;;;7.07;2.95;;;;;;;-148.88;100.00;-17125.47;5020155;28;20466;-80
2023/08/02 00:24:36;;;;;;;6.22;2.65;;;;;;;-148.88;100.00;-17125.47;5020828;28;20048;-82
2023/08/02 00:27:01;;;;;;;9.70;2.88;;;;;;;-148.88;100.00;-17125.47;5022211;28;20400;-83
2023/08/02 00:29:27;;;;;;;11.02;3.30;;;;;;;-148.88;100.00;-17125.47;5021346;28;20393;-83
2023/08/02 00:31:52;;;;;;;6.07;3.05;;;;;;;-148.88;100.00;-17125.47;5021744;28;20111;-83
2023/08/02 00:34:17;;;;;;;8.40;3.25;;;;;;;-148.88;100.00;-17125.47;5022883;28;20432;-82
2023/08/02 00:36:43;;;;;;;9.13;3.00;;;;;;;-148.88;100.00;-17125.47;5023196;28;20484;-83
2023/08/02 00:39:09;;;;;;;6.00;2.90;;;;;;;-148.88;100.00;-17125.47;5022913;28;20389;-82
2023/08/02 00:41:34;;;;;;;7.90;3.28;;;;;;;-148.88;100.00;-17125.47;5022916;28;20477;-82
2023/08/02 00:44:00;;;;;;;7.45;3.05;;;;;;;-148.88;100.00;-17125.47;5021911;28;20480;-83
2023/08/02 00:46:27;;;;;;;10.63;3.30;;;;;;;-148.88;100.00;-17125.47;5018003;28;20022;-82
2023/08/02 00:48:52;;;;;;;9.50;3.42;;;;;;;-148.88;100.00;-17125.47;5016801;28;20034;-82
2023/08/02 00:51:19;;;;;;;8.23;3.15;;;;;;;-148.88;100.00;-17125.47;5017878;28;20030;-80
2023/08/02 00:53:46;;;;;;;8.07;2.78;;;;;;;-148.88;100.00;-17125.47;5018292;28;20048;-82
2023/08/02 00:56:14;;;;;;;8.75;3.00;;;;;;;-148.88;100.00;-17125.47;5018867;28;20029;-82
2023/08/02 00:58:40;;;;;;;5.63;2.63;;;;;;;-148.88;100.00;-17125.47;5018850;28;20133;-82
2023/08/02 01:01:08;;;;;;;7.88;2.90;;;;;;;-148.88;100.00;-17125.47;5019503;28;20049;-82
2023/08/02 01:03:36;;;;;;;7.72;3.08;;;;;;;-148.88;100.00;-17125.47;5019360;28;20030;-82
2023/08/02 01:06:24;;;;;;;6.32;2.97;;;;;;;-148.88;100.00;-17125.47;5021422;28;20032;-82
2023/08/02 01:09:06;;;;;;;7.78;3.08;;;;;;;-148.88;100.00;-17125.47;5021724;28;20026;-82
2023/08/02 01:11:39;;;;;;;9.73;3.38;;;;;;;-148.88;100.00;-17125.47;5021109;28;20121;-82
2023/08/02 01:14:06;;;;;;;8.88;3.03;;;;;;;-148.88;100.00;-17125.47;5022155;28;20032;-83
2023/08/02 01:16:33;;;;;;;9.23;3.30;;;;;;;-148.88;100.00;-17125.47;5021778;28;20025;-82
2023/08/02 01:19:07;;;;;;;6.93;3.28;;;;;;;-148.88;100.00;-17125.47;5021535;28;20072;-83
2023/08/02 01:21:32;;;;;;;11.13;3.38;;;;;;;-148.88;100.00;-17125.47;5021060;28;20025;-82
2023/08/02 01:23:58;;;;;;;7.10;3.20;;;;;;;-148.88;100.00;-17125.47;5017196;28;20045;-81
2023/08/02 01:26:25;;;;;;;7.53;3.15;;;;;;;-148.88;100.00;-17125.47;5019759;28;20037;-82
2023/08/02 01:28:54;;;;;;;6.85;2.75;;;;;;;-148.88;100.00;-17125.47;5020221;28;20026;-83
2023/08/02 01:31:21;;;;;;;11.05;3.63;;;;;;;-148.88;100.00;-17125.47;5021331;28;20022;-81
2023/08/02 01:33:50;;;;;;;7.93;3.60;;;;;;;-148.88;100.00;-17125.47;5021706;28;20028;-82
2023/08/02 01:36:16;;;;;;;6.60;3.03;;;;;;;-148.88;100.00;-17125.47;5021880;28;20420;-83
2023/08/02 01:38:41;;;;;;;6.18;3.03;;;;;;;-148.88;100.00;-17125.47;5020151;28;20037;-83
2023/08/02 01:41:07;;;;;;;12.10;3.42;;;;;;;-148.88;100.00;-17125.47;5022305;28;20025;-82
2023/08/02 01:43:32;;;;;;;9.90;3.25;;;;;;;-148.88;100.00;-17125.47;5020315;28;20053;-83
2023/08/02 01:45:57;;;;;;;11.82;3.60;;;;;;;-148.88;100.00;-17125.47;5020910;28;20030;-83
2023/08/02 01:48:23;;;;;;;6.80;3.33;;;;;;;-148.88;100.00;-17125.47;5022192;28;20025;-82
2023/08/02 01:50:49;;;;;;;8.18;3.67;;;;;;;-148.88;100.00;-17125.47;5020834;28;20098;-82
2023/08/02 01:53:14;;;;;;;8.07;3.53;;;;;;;-148.88;100.00;-17125.47;5019830;28;20022;-82
2023/08/02 01:55:39;;;;;;;9.43;3.13;;;;;;;-148.88;100.00;-17125.47;5021470;28;20022;-82
2023/08/02 01:58:05;;;;;;;8.15;3.15;;;;;;;-148.88;100.00;-17125.47;5021028;28;20113;-81
2023/08/02 02:00:30;;;;;;;8.27;3.38;;;;;;;-148.88;100.00;-17125.47;5019040;28;20022;-81
2023/08/02 02:02:57;;;;;;;9.32;3.58;;;;;;;-148.88;100.00;-17125.47;5014551;28;20018;-81
2023/08/02 02:05:23;;;;;;;7.13;3.20;;;;;;;-148.88;100.00;-17125.47;5015843;28;20049;-82
2023/08/02 02:07:48;;;;;;;8.65;3.53;;;;;;;-148.88;100.00;-17125.47;5018588;28;20053;-80
2023/08/02 02:10:14;;;;;;;8.73;3.10;;;;;;;-148.88;100.00;-17125.47;5018431;28;20056;-83
2023/08/02 02:12:39;;;;;;;8.10;3.72;;;;;;;-148.88;100.00;-17125.47;5019183;28;20052;-82
2023/08/02 02:15:05;;;;;;;10.48;3.47;;;;;;;-148.88;100.00;-17125.47;5019058;28;20393;-82
2023/08/02 02:17:30;;;;;;;8.98;3.28;;;;;;;-148.88;100.00;-17125.47;5018987;28;20052;-82
2023/08/02 02:19:55;;;;;;;12.48;3.92;;;;;;;-148.88;100.00;-17125.47;5019432;28;20120;-83
2023/08/02 02:22:21;;;;;;;10.98;3.75;;;;;;;-148.88;100.00;-17125.47;5019000;28;20022;-83
2023/08/02 02:24:46;;;;;;;8.05;3.60;;;;;;;-148.88;100.00;-17125.47;5019118;28;20104;-82
2023/08/02 02:27:11;;;;;;;9.20;4.28;;;;;;;-148.88;100.00;-17125.47;5019690;28;20079;-81
2023/08/02 02:29:37;;;;;;;9.52;3.60;;;;;;;-148.88;100.00;-17125.47;5019235;28;20022;-83
2023/08/02 02:32:02;;;;;;;11.50;4.28;;;;;;;-148.88;100.00;-17125.47;5018560;28;20049;-82
2023/08/02 02:34:28;;;;;;;8.20;3.63;;;;;;;-148.88;100.00;-17125.47;5018768;28;20523;-82
2023/08/02 02:36:53;;;;;;;8.13;3.63;;;;;;;-148.88;100.00;-17125.47;5017976;28;20050;-81
2023/08/02 02:39:18;;;;;;;8.68;3.63;;;;;;;-148.88;100.00;-17125.47;5013376;28;20079;-81
2023/08/02 02:41:44;;;;;;;8.88;3.58;;;;;;;-148.88;100.00;-17125.47;5014684;28;20030;-81
2023/08/02 02:44:09;;;;;;;8.15;3.63;;;;;;;-148.88;100.00;-17125.47;5016555;28;20045;-82
2023/08/02 02:46:34;;;;;;;7.63;3.35;;;;;;;-148.88;100.00;-17125.47;5019723;28;20029;-82
2023/08/02 02:49:00;;;;;;;7.15;3.40;;;;;;;-148.88;100.00;-17125.47;5019388;28;20021;-82
2023/08/02 02:51:25;;;;;;;7.97;3.38;;;;;;;-148.88;100.00;-17125.47;5020224;28;20460;-82
2023/08/02 02:53:50;;;;;;;12.57;3.80;;;;;;;-148.88;100.00;-17125.47;5022413;28;20520;-81
2023/08/02 02:56:16;;;;;;;8.63;3.85;;;;;;;-148.88;100.00;-17125.47;5020338;28;20046;-81
2023/08/02 02:58:41;;;;;;;9.18;3.50;;;;;;;-148.88;100.00;-17125.47;5021747;28;20113;-81
2023/08/02 03:01:06;;;;;;;10.75;3.65;;;;;;;-148.88;100.00;-17125.47;5019840;28;20080;-83
2023/08/02 03:03:31;;;;;;;10.65;3.95;;;;;;;-148.88;100.00;-17125.47;5022936;28;20412;-82
2023/08/02 03:05:57;;;;;;;8.40;3.33;;;;;;;-148.88;100.00;-17125.47;5018520;28;20480;-82
2023/08/02 03:08:22;;;;;;;12.75;4.00;;;;;;;-148.88;100.00;-17125.47;5022268;28;20022;-83
2023/08/02 03:10:48;;;;;;;7.40;3.42;;;;;;;-148.88;100.00;-17125.47;5020392;28;20409;-83
2023/08/02 03:13:13;;;;;;;7.25;3.45;;;;;;;-148.88;100.00;-17125.47;5019912;28;20393;-81
2023/08/02 03:15:38;;;;;;;9.00;3.35;;;;;;;-148.88;100.00;-17125.47;5028634;23;20026;-72
2023/08/02 03:18:04;;;;;;;9.68;3.53;;;;;;;-148.88;100.00;-17125.47;5011505;28;20045;-72
2023/08/02 03:20:29;;;;;;;8.45;3.38;;;;;;;-148.88;100.00;-17125.47;5012719;28;20093;-73
2023/08/02 03:22:54;;;;;;;8.98;3.83;;;;;;;-148.88;100.00;-17125.47;5012597;28;20113;-72
2023/08/02 03:25:20;;;;;;;7.97;3.30;;;;;;;-148.88;100.00;-17125.47;5012677;28;20492;-72
2023/08/02 03:27:45;;;;;;;7.50;3.55;;;;;;;-148.88;100.00;-17125.47;5012722;28;20025;-72
2023/08/02 03:30:10;;;;;;;8.15;3.88;;;;;;;-148.88;100.00;-17125.47;5011798;28;20072;-72
2023/08/02 03:32:36;;;;;;;10.25;3.97;;;;;;;-148.88;100.00;-17125.47;5016313;28;20053;-72
2023/08/02 03:35:01;;;;;;;9.98;3.85;;;;;;;-148.88;100.00;-17125.47;5016387;28;20484;-72
2023/08/02 03:37:27;;;;;;;9.80;4.03;;;;;;;-148.88;100.00;-17125.47;5016238;28;20080;-72
2023/08/02 03:39:52;;;;;;;9.48;4.50;;;;;;;-148.88;100.00;-17125.47;5016236;28;20047;-72
2023/08/02 03:42:17;;;;;;;9.32;4.15;;;;;;;-148.88;100.00;-17125.47;5016308;28;20026;-72
2023/08/02 03:44:43;;;;;;;10.27;4.13;;;;;;;-148.88;100.00;-17125.47;5016251;28;20044;-72
2023/08/02 03:47:08;;;;;;;8.00;3.83;;;;;;;-148.88;100.00;-17125.47;5016092;28;20029;-72
2023/08/02 03:49:33;;;;;;;9.43;4.20;;;;;;;-148.88;100.00;-17125.47;5016170;28;20400;-72
2023/08/02 03:51:59;;;;;;;9.48;3.78;;;;;;;-148.88;100.00;-17125.47;5016048;28;20125;-72
2023/08/02 03:54:24;;;;;;;6.95;3.53;;;;;;;-148.88;100.00;-17125.47;5014613;28;20025;-72
2023/08/02 03:56:49;;;;;;;8.80;3.78;;;;;;;-148.88;100.00;-17125.47;5015998;28;20080;-72
2023/08/02 03:59:15;;;;;;;7.13;3.75;;;;;;;-148.88;100.00;-17125.47;5015968;28;20030;-72
2023/08/02 04:01:40;;;;;;;9.85;4.13;;;;;;;-148.88;100.00;-17125.47;5015835;28;20105;-72
2023/08/02 04:04:05;;;;;;;10.48;4.43;;;;;;;-148.88;100.00;-17125.47;5015911;28;20037;-72
2023/08/02 04:06:31;;;;;;;6.60;4.22;;;;;;;-148.88;100.00;-17125.47;5016058;28;20026;-71
2023/08/02 04:08:56;;;;;;;8.05;4.07;;;;;;;-148.88;100.00;-17125.47;5016127;28;20064;-72
2023/08/02 04:11:22;;;;;;;9.25;4.18;;;;;;;-148.88;100.00;-17125.47;5016132;28;20060;-72
2023/08/02 04:13:49;;;;;;;10.50;4.10;;;;;;;-148.88;100.00;-17125.47;5016072;28;20106;-72
2023/08/02 04:16:15;;;;;;;7.47;4.72;;;;;;;-148.88;100.00;-17125.47;5015908;28;20488;-72
2023/08/02 04:18:41;;;;;;;8.90;4.45;;;;;;;-148.88;100.00;-17125.47;5016257;28;20033;-73
2023/08/02 04:21:06;;;;;;;7.88;4.70;;;;;;;-148.88;100.00;-17125.47;5015845;28;20057;-73
2023/08/02 04:23:32;;;;;;;7.97;4.38;;;;;;;-148.88;100.00;-17125.47;5015810;28;20061;-72
2023/08/02 04:25:57;;;;;;;8.00;4.50;;;;;;;-148.88;100.00;-17125.47;5016166;28;20075;-73
2023/08/02 04:28:22;;;;;;;8.75;4.22;;;;;;;-148.88;100.00;-17125.47;5015978;28;20026;-72
2023/08/02 04:30:52;;;;;;;13.30;5.30;;;;;;;-148.88;100.00;-17125.47;5014519;28;20148;-72
2023/08/02 04:33:20;;;;;;;8.85;5.13;;;;;;;-148.88;100.00;-17125.47;5015687;28;20022;-72
2023/08/02 04:35:46;;;;;;;10.27;5.35;;;;;;;-148.88;100.00;-17125.47;5015662;28;20488;-73
2023/08/02 04:38:11;;;;;;;6.88;4.85;;;;;;;-148.88;100.00;-17125.47;5015694;28;20029;-72
2023/08/02 04:40:38;;;;;;;11.68;4.88;;;;;;;-148.88;100.00;-17125.47;5015945;28;20093;-73
2023/08/02 04:43:03;;;;;;;11.63;5.40;;;;;;;-148.88;100.00;-17125.47;5015310;28;20048;-72
2023/08/02 04:45:29;;;;;;;8.90;5.43;;;;;;;-148.88;100.00;-17125.47;5015762;28;20544;-72
2023/08/02 04:47:54;;;;;;;11.43;5.35;;;;;;;-148.88;100.00;-17125.47;5015406;28;20125;-73
2023/08/02 04:50:20;;;;;;;8.85;5.13;;;;;;;-148.88;100.00;-17125.47;5015668;28;20030;-73
2023/08/02 04:52:45;;;;;;;10.68;4.95;;;;;;;-148.88;100.00;-17125.47;5015338;28;20018;-72
2023/08/02 04:55:10;;;;;;;12.10;5.18;;;;;;;-148.88;100.00;-17125.47;5015342;28;20024;-72
2023/08/02 04:57:36;;;;;;;9.30;5.35;;;;;;;-148.88;100.00;-17125.47;5015346;28;20125;-72
2023/08/02 05:00:01;;;;;;;7.57;4.80;;;;;;;-148.88;100.00;-17125.47;5015505;28;20026;-73
2023/08/02 05:02:33;;;;;;;11.10;4.88;;;;;;;-148.88;100.00;-17125.47;5015345;28;20079;-72
2023/08/02 05:04:58;;;;;;;11.50;5.00;;;;;;;-148.88;100.00;-17125.47;5015239;28;20113;-72
2023/08/02 05:07:26;;;;;;;9.60;5.05;;;;;;;-148.88;100.00;-17125.47;5015299;28;20556;-72
2023/08/02 05:09:51;;;;;;;9.63;5.25;;;;;;;-148.88;100.00;-17125.47;5013960;28;20116;-72
2023/08/02 05:12:17;;;;;;;10.70;4.80;;;;;;;-148.88;100.00;-17125.47;5015372;28;20108;-73
2023/08/02 05:14:42;;;;;;;8.43;4.20;;;;;;;-148.88;100.00;-17125.47;5015414;28;20032;-72
2023/08/02 05:17:08;;;;;;;8.68;4.47;;;;;;;-148.88;100.00;-17125.47;5014879;28;20034;-72
2023/08/02 05:19:34;;;;;;;9.65;4.55;;;;;;;-148.88;100.00;-17125.47;5015037;28;20061;-71
2023/08/02 05:21:59;;;;;;;8.65;4.25;;;;;;;-148.88;100.00;-17125.47;5014845;28;20026;-72
2023/08/02 05:24:24;;;;;;;7.97;4.40;;;;;;;-148.88;100.00;-17125.47;5015134;28;20029;-72
2023/08/02 05:26:50;;;;;;;8.07;3.97;;;;;;;-148.88;100.00;-17125.47;5015016;28;20443;-72
2023/08/02 05:29:15;;;;;;;6.63;4.07;;;;;;;-148.88;100.00;-17125.47;5014754;28;20022;-72
2023/08/02 05:31:40;;;;;;;6.65;4.22;;;;;;;-148.88;100.00;-17125.47;5015088;28;20018;-72
2023/08/02 05:34:06;;;;;;;7.68;4.55;;;;;;;-148.88;100.00;-17125.47;4997117;28;20030;-73
2023/08/02 05:36:31;;;;;;;6.88;4.40;;;;;;;-148.88;100.00;-17125.47;5014694;28;20029;-72
2023/08/02 05:38:56;;;;;;;6.25;4.38;;;;;;;-148.88;100.00;-17125.47;5014360;28;20030;-72
2023/08/02 05:41:22;;;;;;;9.95;4.60;;;;;;;-148.88;100.00;-17125.47;5013391;28;20022;-72
2023/08/02 05:43:47;;;;;;;7.30;4.32;;;;;;;-148.88;100.00;-17125.47;5014418;28;20544;-72
2023/08/02 05:46:13;;;;;;;10.70;4.80;;;;;;;-148.88;100.00;-17125.47;5014569;28;20026;-72
2023/08/02 05:48:38;;;;;;;9.45;4.45;;;;;;;-148.88;100.00;-17125.47;5014314;28;20104;-73
2023/08/02 05:51:03;;;;;;;8.57;4.45;;;;;;;-148.88;100.00;-17125.47;5015104;28;20105;-72
2023/08/02 05:53:29;;;;;;;7.72;4.00;;;;;;;-148.88;100.00;-17125.47;5014415;28;20029;-73
2023/08/02 05:55:58;;;;;;;7.25;3.78;;;;;;;-148.88;100.00;-17125.47;5014264;28;20025;-73
2023/08/02 05:58:23;;;;;;;7.72;4.28;;;;;;;-148.88;100.00;-17125.47;5014101;28;20440;-73
2023/08/02 06:00:49;;;;;;;10.15;4.95;;;;;;;-148.88;100.00;-17125.47;5014146;28;20050;-73
2023/08/02 06:03:14;;;;;;;9.68;4.03;;;;;;;-148.88;100.00;-17125.47;5013968;28;20397;-73
2023/08/02 06:05:39;;;;;;;7.78;3.55;;;;;;;-148.88;100.00;-17125.47;5014090;28;20414;-73
2023/08/02 06:08:05;;;;;;;7.78;3.90;;;;;;;-148.88;100.00;-17125.47;5013879;28;20369;-74
2023/08/02 06:10:30;;;;;;;7.30;3.70;;;;;;;-148.88;100.00;-17125.47;5014003;28;20022;-73
2023/08/02 06:12:57;;;;;;;7.00;3.28;;;;;;;-148.88;100.00;-17125.47;5013781;28;20024;-73
2023/08/02 06:15:22;;;;;;;6.18;3.42;;;;;;;-148.88;100.00;-17125.47;5012758;28;20036;-73
2023/08/02 06:17:48;;;;;;;7.32;3.63;;;;;;;-148.88;100.00;-17125.47;5013619;28;20021;-73
2023/08/02 06:20:13;;;;;;;7.40;3.05;;;;;;;-148.88;100.00;-17125.47;5013700;28;20022;-73
2023/08/02 06:22:41;;;;;;;5.43;3.10;;;;;;;-148.88;100.00;-17125.47;5013554;28;20030;-73
2023/08/02 06:25:07;;;;;;;6.10;3.00;;;;;;;-148.88;100.00;-17125.47;5013675;28;20022;-73
2023/08/02 06:27:32;;;;;;;5.10;2.83;;;;;;;-148.88;100.00;-17125.47;5013815;28;20068;-73
2023/08/02 06:29:57;;;;;;;7.15;2.80;;;;;;;-148.88;100.00;-17125.47;5012459;28;20029;-73
2023/08/02 06:32:23;;;;;;;6.35;2.60;;;;;;;-148.88;100.00;-17125.47;5013508;28;20108;-73
2023/08/02 06:34:48;;;;;;;7.75;2.47;;;;;;;-148.88;100.00;-17125.47;5013830;28;20030;-73
2023/08/02 06:37:13;;;;;;;11.73;3.17;;;;;;;-148.88;100.00;-17125.47;5013672;28;20033;-73
2023/08/02 06:39:39;;;;;;;6.07;2.70;;;;;;;-148.88;100.00;-17125.47;5013452;28;20022;-73
2023/08/02 06:42:05;;;;;;;6.15;2.80;;;;;;;-148.88;100.00;-17125.47;5013503;28;20362;-73
2023/08/02 06:44:31;;;;;;;6.57;2.40;;;;;;;-148.88;100.00;-17125.47;5017944;28;20021;-73
2023/08/02 06:46:56;;;;;;;6.20;2.42;;;;;;;-148.88;100.00;-17125.47;5033031;28;20022;-73
2023/08/02 06:49:22;;;;;;;7.15;2.67;;;;;;;-148.88;100.00;-17125.47;5015653;28;20104;-73
2023/08/02 06:51:47;;;;;;;5.50;2.10;;;;;;;-148.88;100.00;-17125.47;5013233;28;20021;-73
2023/08/02 06:54:12;;;;;;;5.25;2.30;;;;;;;-148.88;100.00;-17125.47;5013085;28;20026;-73
2023/08/02 06:56:38;;;;;;;7.00;2.30;;;;;;;-148.88;100.00;-17125.47;5012967;28;20026;-73
2023/08/02 06:59:03;;;;;;;4.63;2.03;;;;;;;-148.88;100.00;-17125.47;5013074;28;20476;-73
2023/08/02 07:01:28;;;;;;;5.45;2.00;;;;;;;-148.88;100.00;-17125.47;5013042;28;20044;-73
2023/08/02 07:03:54;;;;;;;5.80;2.30;;;;;;;-148.88;100.00;-17125.47;5013175;28;20032;-73
2023/08/02 07:06:20;;;;;;;5.82;1.90;;;;;;;-148.88;100.00;-17125.47;5015434;28;20060;-73
2023/08/02 07:08:46;;;;;;;5.68;2.40;;;;;;;-148.88;100.00;-17125.47;5016814;28;20037;-73
2023/08/02 07:11:12;;;;;;;4.60;2.00;;;;;;;-148.88;100.00;-17125.47;5017244;28;20038;-73
2023/08/02 07:13:43;;;;;;;4.07;1.83;;;;;;;-148.88;100.00;-17125.47;5017187;28;20026;-73
2023/08/02 07:16:08;;;;;;;4.85;2.38;;;;;;;-148.88;100.00;-17125.47;5017203;28;20030;-73
2023/08/02 07:18:34;;;;;;;4.30;2.10;;;;;;;-148.88;100.00;-17125.47;5016853;28;20025;-73
2023/08/02 07:21:09;;;;;;;4.82;2.00;;;;;;;-148.88;100.00;-17125.47;5016981;28;20025;-72
2023/08/02 07:23:35;;;;;;;6.25;2.30;;;;;;;-148.88;100.00;-17125.47;5017311;28;20022;-73
2023/08/02 07:26:01;;;;;;;4.53;2.05;;;;;;;-148.88;100.00;-17125.47;5016976;28;20025;-73
2023/08/02 07:28:27;;;;;;;3.85;1.90;;;;;;;-148.88;100.00;-17125.47;5017227;28;20029;-73
2023/08/02 07:30:52;;;;;;;4.82;2.08;;;;;;;-148.88;100.00;-17125.47;5016743;28;20022;-73
2023/08/02 07:33:18;;;;;;;4.85;2.30;;;;;;;-148.88;100.00;-17125.47;5016900;28;20022;-73
2023/08/02 07:35:46;;;;;;;5.07;2.30;;;;;;;-148.88;100.00;-17125.47;5016791;28;20101;-73
2023/08/02 07:38:11;;;;;;;5.57;1.80;;;;;;;-148.88;100.00;-17125.47;5021198;28;20022;-73
2023/08/02 07:40:37;;;;;;;3.42;1.98;;;;;;;-148.88;100.00;-17125.47;5036430;28;20029;-73
2023/08/02 07:43:02;;;;;;;5.55;2.00;;;;;;;-148.88;100.00;-17125.47;5036225;28;20482;-73
2023/08/02 07:45:27;;;;;;;6.70;2.15;;;;;;;-148.88;100.00;-17125.47;5036132;28;20036;-73
2023/08/02 07:47:53;;;;;;;4.82;1.88;;;;;;;-148.88;100.00;-17125.47;5035054;28;20498;-73
2023/08/02 07:50:18;;;;;;;4.03;1.95;;;;;;;-148.88;100.00;-17125.47;5016375;28;20423;-73
2023/08/02 07:52:43;;;;;;;4.93;2.10;;;;;;;-148.88;100.00;-17125.47;5016311;28;20101;-73
2023/08/02 07:55:09;;;;;;;3.95;1.80;;;;;;;-148.88;100.00;-17125.47;5014982;28;20018;-73
2023/08/02 07:57:34;;;;;;;3.92;2.00;;;;;;;-148.88;100.00;-17125.47;5016233;28;20481;-73
2023/08/02 08:00:00;;;;;;;3.95;1.95;;;;;;;-148.88;100.00;-17125.47;5016018;28;20022;-73
2023/08/02 08:02:27;;;;;;;4.63;2.20;;;;;;;-148.88;100.00;-17125.47;5016006;28;20037;-73
2023/08/02 08:04:52;;;;;;;4.22;1.73;;;;;;;-148.88;100.00;-17125.47;5016378;28;20022;-73
2023/08/02 08:07:18;;;;;;;4.55;2.35;;;;;;;-148.88;100.00;-17125.47;5016197;28;20392;-73
2023/08/02 08:09:43;;;;;;;5.53;2.33;;;;;;;-148.88;100.00;-17125.47;5016164;28;20025;-74
2023/08/02 08:12:09;;;;;;;3.33;2.08;;;;;;;-148.88;100.00;-17125.47;5016001;28;20022;-73
2023/08/02 08:14:34;;;;;;;4.32;2.10;;;;;;;-148.88;100.00;-17125.47;5015990;28;20040;-72
2023/08/02 08:17:00;;;;;;;5.78;2.13;;;;;;;-148.88;100.00;-17125.47;5015527;28;20064;-72
2023/08/02 08:19:27;;;;;;;4.95;2.30;;;;;;;-148.88;100.00;-17125.47;5015898;28;20026;-73
2023/08/02 08:21:53;;;;;;;8.38;2.38;;;;;;;-148.88;100.00;-17125.47;5014549;28;20026;-72
2023/08/02 08:24:18;;;;;;;8.23;2.60;;;;;;;-148.88;100.00;-17125.47;5015862;28;20022;-72
2023/08/02 08:26:44;;;;;;;5.63;2.60;;;;;;;-148.88;100.00;-17125.47;5015710;28;20393;-73
2023/08/02 08:29:11;;;;;;;5.28;2.45;;;;;;;-148.88;100.00;-17125.47;5015848;28;20065;-73
2023/08/02 08:31:36;;;;;;;5.88;2.47;;;;;;;-148.88;100.00;-17125.47;5015616;28;20021;-73
2023/08/02 08:34:02;;;;;;;4.43;2.25;;;;;;;-148.88;100.00;-17125.47;5015608;28;20545;-72
2023/08/02 08:36:29;;;;;;;5.22;2.58;;;;;;;-148.88;100.00;-17125.47;5015572;28;20095;-72
2023/08/02 08:38:55;;;;;;;5.47;2.50;;;;;;;-148.88;100.00;-17125.47;5015567;28;20029;-73
2023/08/02 08:41:21;;;;;;;5.63;2.53;;;;;;;-148.88;100.00;-17125.47;5015702;28;20047;-72
2023/08/02 08:43:46;;;;;;;5.80;2.92;;;;;;;-148.88;100.00;-17125.47;5015429;28;20499;-72
2023/08/02 08:46:13;;;;;;;3.80;2.30;;;;;;;-148.88;100.00;-17125.47;5015396;28;20037;-73
2023/08/02 08:48:38;;;;;;;3.72;2.53;;;;;;;-148.88;100.00;-17125.47;5015181;28;20026;-72
2023/08/02 08:51:05;;;;;;;3.92;2.50;;;;;;;-148.88;100.00;-17125.47;5014029;28;20120;-72
2023/08/02 08:53:34;;;;;;;5.38;3.13;;;;;;;-148.88;100.00;-17125.47;5017997;28;20014;-72
2023/08/02 08:56:01;;;;;;;4.90;2.90;;;;;;;-148.88;100.00;-17125.47;5015157;28;20110;-72
2023/08/02 08:58:27;;;;;;;7.05;2.92;;;;;;;-148.88;100.00;-17125.47;5014977;28;20078;-72
2023/08/02 09:00:58;;;;;;;5.35;2.78;;;;;;;-148.88;100.00;-17125.47;5015052;28;20033;-77
2023/08/02 09:03:23;;;;;;;5.57;3.20;;;;;;;-148.88;100.00;-17125.47;5014968;28;20033;-73
2023/08/02 09:05:52;;;;;;;6.60;2.97;;;;;;;-148.88;100.00;-17125.47;5031110;28;20021;-72
2023/08/02 09:08:17;;;;;;;5.47;3.70;;;;;;;-148.88;100.00;-17125.47;5034518;28;20033;-72
2023/08/02 09:10:43;;;;;;;7.70;3.13;;;;;;;-148.88;100.00;-17125.47;5034790;28;20022;-72
2023/08/02 09:13:25;;;;;;;5.53;3.25;;;;;;;-148.88;100.00;-17125.47;5034661;28;20017;-72
2023/08/02 09:16:20;;;;;;;4.57;3.63;;;;;;;-148.88;100.00;-17125.47;5034652;28;20039;-73
2023/08/02 09:18:48;;;;;;;4.97;3.13;;;;;;;-148.88;100.00;-17125.47;5021655;28;20575;-73
2023/08/02 09:21:20;;;;;;;5.70;3.92;;;;;;;-148.88;100.00;-17125.47;5034571;28;20511;-73
2023/08/02 09:23:46;;;;;;;6.35;3.38;;;;;;;-148.88;100.00;-17125.47;5034488;28;20029;-73
2023/08/02 09:26:20;;;;;;;6.15;3.28;;;;;;;-148.88;100.00;-17125.47;5034463;28;20045;-73
2023/08/02 09:29:02;;;;;;;6.13;3.38;;;;;;;-148.88;100.00;-17125.47;5018198;28;20030;-73
2023/08/02 09:31:30;;;;;;;5.30;3.10;;;;;;;-148.88;100.00;-17125.47;5014648;28;20029;-73
2023/08/02 09:33:55;;;;;;;5.40;3.65;;;;;;;-148.88;100.00;-17125.47;5013226;28;20022;-73
2023/08/02 09:36:29;;;;;;;5.35;3.50;;;;;;;-148.88;100.00;-17125.47;5014236;28;20032;-72
2023/08/02 09:39:02;;;;;;;6.15;3.58;;;;;;;-148.88;100.00;-17125.47;5014517;28;20026;-73
2023/08/02 09:41:28;;;;;;;5.23;3.60;;;;;;;-148.88;100.00;-17125.47;5012862;28;20117;-73
2023/08/02 09:43:54;;;;;;;6.95;3.85;;;;;;;-148.88;100.00;-17125.47;5014121;28;20032;-72
2023/08/02 09:46:30;;;;;;;6.03;3.72;;;;;;;-148.88;100.00;-17125.47;5013921;28;20022;-72
2023/08/02 09:48:59;;;;;;;6.53;3.60;;;;;;;-148.88;100.00;-17125.47;5014183;28;20042;-73
2023/08/02 09:51:41;;;;;;;6.68;4.10;;;;;;;-148.88;100.00;-17125.47;5012869;28;20026;-73
2023/08/02 09:54:08;;;;;;;5.72;4.10;;;;;;;-148.88;100.00;-17125.47;5013851;28;20040;-72
2023/08/02 09:56:35;;;;;;;6.68;4.68;;;;;;;-148.88;100.00;-17125.47;5014060;28;20029;-72
2023/08/02 09:59:02;;;;;;;6.03;4.55;;;;;;;-148.88;100.00;-17125.47;5012476;28;20570;-72
2023/08/02 10:01:28;;;;;;;9.23;4.55;;;;;;;-148.88;100.00;-17125.47;5013815;28;20026;-73
2023/08/02 10:03:57;;;;;;;8.02;5.20;;;;;;;-148.88;100.00;-17125.47;5014061;28;20038;-72
2023/08/02 10:06:34;;;;;;;6.85;4.85;;;;;;;-148.88;100.00;-17125.47;5013568;28;20022;-72
2023/08/02 10:09:07;;;;;;;6.35;4.75;;;;;;;-148.88;100.00;-17125.47;5013467;28;20096;-73
2023/08/02 10:11:38;;;;;;;6.90;5.28;;;;;;;-148.88;100.00;-17125.47;5013414;28;20022;-73
2023/08/02 10:14:04;;;;;;;5.88;4.72;;;;;;;-148.88;100.00;-17125.47;5013245;28;20030;-74
2023/08/02 10:16:31;;;;;;;9.68;5.15;;;;;;;-148.88;100.00;-17125.47;5012926;28;20125;-76
2023/08/02 10:18:56;;;;;;;7.80;6.05;;;;;;;-148.88;100.00;-17125.47;5011834;28;20037;-74
2023/08/02 10:21:22;;;;;;;6.95;6.07;;;;;;;-148.88;100.00;-17125.47;5011755;28;20032;-73
2023/08/02 10:23:49;;;;;;;8.48;5.88;;;;;;;-148.88;100.00;-17125.47;5013041;28;20021;-72
2023/08/02 10:26:15;;;;;;;6.15;5.40;;;;;;;-148.88;100.00;-17125.47;5012926;28;20110;-72
2023/08/02 10:28:41;;;;;;;7.78;5.63;;;;;;;-148.88;100.00;-17125.47;5012985;28;20029;-74
2023/08/02 10:31:08;;;;;;;7.22;5.25;;;;;;;-148.88;100.00;-17125.47;5012818;28;20408;-73
2023/08/02 10:33:34;;;;;;;7.40;5.65;;;;;;;-148.88;100.00;-17125.47;5011578;28;20022;-73
2023/08/02 10:36:04;;;;;;;7.15;5.40;;;;;;;-148.88;100.00;-17125.47;5012756;28;20045;-72
2023/08/02 10:38:39;;;;;;;8.88;5.82;;;;;;;-148.88;100.00;-17125.47;5012694;28;20396;-72
2023/08/02 10:41:17;;;;;;;8.30;6.03;;;;;;;-148.88;100.00;-17125.47;5011336;28;20124;-72
2023/08/02 10:43:54;;;;;;;9.75;5.13;;;;;;;-148.88;100.00;-17125.47;5012749;28;20065;-73
2023/08/02 10:46:22;;;;;;;10.32;6.20;;;;;;;-148.88;100.00;-17125.47;5012534;28;20432;-72
2023/08/02 10:48:48;;;;;;;11.48;6.70;;;;;;;-148.88;100.00;-17125.47;5012680;28;20451;-72
2023/08/02 10:51:31;;;;;;;8.63;5.40;;;;;;;-148.88;100.00;-17125.47;5012665;28;20025;-73
2023/08/02 10:54:08;;;;;;;9.02;6.15;;;;;;;-148.88;100.00;-17125.47;5011148;28;20566;-72
2023/08/02 10:56:33;;;;;;;10.23;6.30;;;;;;;-148.88;100.00;-17125.47;5012664;28;20030;-74